sensor_id;sensor_type;location;lat;lon;timestamp;temperature;humidity
66086;DHT22;52868;49.758;9.586;2023-01-01T00:01:42;13.50;74.90
66086;DHT22;52868;49.758;9.586;2023-01-01T00:04:13;13.50;75.00
66086;DHT22;52868;49.758;9.586;2023-01-01T00:06:40;13.50;74.90
66086;DHT22;52868;49.758;9.586;2023-01-01T00:09:06;13.50;74.90
66086;DHT22;52868;49.758;9.586;2023-01-01T00:11:50;13.50;75.00
66086;DHT22;52868;49.758;9.586;2023-01-01T00:14:16;13.50;74.90
66086;DHT22;52868;49.758;9.586;2023-01-01T00:16:41;13.50;74.90
66086;DHT22;52868;49.758;9.586;2023-01-01T00:19:07;13.60;74.90
66086;DHT22;52868;49.758;9.586;2023-01-01T00:21:33;13.50;74.90
66086;DHT22;52868;49.758;9.586;2023-01-01T00:23:58;13.50;74.90
66086;DHT22;52868;49.758;9.586;2023-01-01T00:26:24;13.50;74.80
66086;DHT22;52868;49.758;9.586;2023-01-01T00:28:49;13.50;74.90
66086;DHT22;52868;49.758;9.586;2023-01-01T00:31:18;13.60;74.90
66086;DHT22;52868;49.758;9.586;2023-01-01T00:33:45;13.60;74.90
66086;DHT22;52868;49.758;9.586;2023-01-01T00:36:15;13.50;74.90
66086;DHT22;52868;49.758;9.586;2023-01-01T00:38:43;13.50;74.90
66086;DHT22;52868;49.758;9.586;2023-01-01T00:41:09;13.60;74.90
66086;DHT22;52868;49.758;9.586;2023-01-01T00:43:35;13.50;74.80
66086;DHT22;52868;49.758;9.586;2023-01-01T00:46:01;13.60;74.90
66086;DHT22;52868;49.758;9.586;2023-01-01T00:48:27;13.50;74.90
66086;DHT22;52868;49.758;9.586;2023-01-01T00:50:53;13.50;74.80
66086;DHT22;52868;49.758;9.586;2023-01-01T00:53:19;13.50;74.80
66086;DHT22;52868;49.758;9.586;2023-01-01T00:55:47;13.50;74.80
66086;DHT22;52868;49.758;9.586;2023-01-01T00:58:13;13.50;74.80
66086;DHT22;52868;49.758;9.586;2023-01-01T01:00:38;13.50;74.80
66086;DHT22;52868;49.758;9.586;2023-01-01T01:03:04;13.60;74.70
66086;DHT22;52868;49.758;9.586;2023-01-01T01:05:30;13.60;74.80
66086;DHT22;52868;49.758;9.586;2023-01-01T01:07:57;13.50;74.70
66086;DHT22;52868;49.758;9.586;2023-01-01T01:10:23;13.60;74.70
66086;DHT22;52868;49.758;9.586;2023-01-01T01:12:51;13.50;74.60
66086;DHT22;52868;49.758;9.586;2023-01-01T01:15:17;13.60;74.70
66086;DHT22;52868;49.758;9.586;2023-01-01T01:17:43;13.50;74.60
66086;DHT22;52868;49.758;9.586;2023-01-01T01:20:10;13.60;74.60
66086;DHT22;52868;49.758;9.586;2023-01-01T01:22:36;13.60;74.60
66086;DHT22;52868;49.758;9.586;2023-01-01T01:25:02;13.60;74.60
66086;DHT22;52868;49.758;9.586;2023-01-01T01:27:28;13.60;74.60
66086;DHT22;52868;49.758;9.586;2023-01-01T01:29:53;13.60;74.50
66086;DHT22;52868;49.758;9.586;2023-01-01T01:32:21;13.60;74.60
66086;DHT22;52868;49.758;9.586;2023-01-01T01:34:47;13.60;74.50
66086;DHT22;52868;49.758;9.586;2023-01-01T01:37:13;13.60;74.50
66086;DHT22;52868;49.758;9.586;2023-01-01T01:39:39;13.60;74.50
66086;DHT22;52868;49.758;9.586;2023-01-01T01:42:04;13.60;74.50
66086;DHT22;52868;49.758;9.586;2023-01-01T01:49:40;13.50;74.60
66086;DHT22;52868;49.758;9.586;2023-01-01T01:52:08;13.50;74.50
66086;DHT22;52868;49.758;9.586;2023-01-01T01:54:34;13.60;74.60
66086;DHT22;52868;49.758;9.586;2023-01-01T01:57:03;13.50;74.50
66086;DHT22;52868;49.758;9.586;2023-01-01T01:59:38;13.50;74.60
66086;DHT22;52868;49.758;9.586;2023-01-01T02:02:33;13.50;74.60
66086;DHT22;52868;49.758;9.586;2023-01-01T02:05:01;13.50;74.60
66086;DHT22;52868;49.758;9.586;2023-01-01T02:07:29;13.50;74.60
66086;DHT22;52868;49.758;9.586;2023-01-01T02:09:56;13.50;74.60
66086;DHT22;52868;49.758;9.586;2023-01-01T02:12:23;13.50;74.60
66086;DHT22;52868;49.758;9.586;2023-01-01T02:14:48;13.50;74.50
66086;DHT22;52868;49.758;9.586;2023-01-01T02:17:39;13.50;74.60
66086;DHT22;52868;49.758;9.586;2023-01-01T02:20:20;13.50;74.50
66086;DHT22;52868;49.758;9.586;2023-01-01T02:23:14;13.50;74.60
66086;DHT22;52868;49.758;9.586;2023-01-01T02:31:27;13.40;74.60
66086;DHT22;52868;49.758;9.586;2023-01-01T02:33:57;13.40;74.50
66086;DHT22;52868;49.758;9.586;2023-01-01T02:36:27;13.40;74.60
66086;DHT22;52868;49.758;9.586;2023-01-01T02:38:56;13.40;74.70
66086;DHT22;52868;49.758;9.586;2023-01-01T02:41:38;13.40;74.70
66086;DHT22;52868;49.758;9.586;2023-01-01T02:44:04;13.40;74.70
66086;DHT22;52868;49.758;9.586;2023-01-01T02:46:32;13.30;74.70
66086;DHT22;52868;49.758;9.586;2023-01-01T02:48:58;13.40;74.70
66086;DHT22;52868;49.758;9.586;2023-01-01T03:08:37;13.30;74.70
66086;DHT22;52868;49.758;9.586;2023-01-01T03:11:12;13.30;74.70
66086;DHT22;52868;49.758;9.586;2023-01-01T03:19:20;13.30;74.60
66086;DHT22;52868;49.758;9.586;2023-01-01T03:24:23;13.30;74.70
66086;DHT22;52868;49.758;9.586;2023-01-01T03:26:54;13.30;74.60
66086;DHT22;52868;49.758;9.586;2023-01-01T03:29:22;13.30;74.60
66086;DHT22;52868;49.758;9.586;2023-01-01T03:31:51;13.30;74.80
66086;DHT22;52868;49.758;9.586;2023-01-01T03:34:21;13.30;74.70
66086;DHT22;52868;49.758;9.586;2023-01-01T03:36:51;13.30;74.80
66086;DHT22;52868;49.758;9.586;2023-01-01T03:39:23;13.30;74.70
66086;DHT22;52868;49.758;9.586;2023-01-01T03:42:03;13.30;74.80
66086;DHT22;52868;49.758;9.586;2023-01-01T03:44:51;13.30;74.70
66086;DHT22;52868;49.758;9.586;2023-01-01T03:47:18;13.30;74.70
66086;DHT22;52868;49.758;9.586;2023-01-01T03:49:44;13.30;74.70
66086;DHT22;52868;49.758;9.586;2023-01-01T03:55:29;13.30;74.70
66086;DHT22;52868;49.758;9.586;2023-01-01T04:01:25;13.20;74.70
66086;DHT22;52868;49.758;9.586;2023-01-01T04:03:52;13.30;74.70
66086;DHT22;52868;49.758;9.586;2023-01-01T04:06:19;13.30;74.70
66086;DHT22;52868;49.758;9.586;2023-01-01T04:08:48;13.20;74.70
66086;DHT22;52868;49.758;9.586;2023-01-01T04:11:18;13.20;74.70
66086;DHT22;52868;49.758;9.586;2023-01-01T04:14:04;13.20;74.60
66086;DHT22;52868;49.758;9.586;2023-01-01T04:16:29;13.20;74.70
66086;DHT22;52868;49.758;9.586;2023-01-01T04:18:55;13.30;74.80
66086;DHT22;52868;49.758;9.586;2023-01-01T04:21:20;13.20;74.80
66086;DHT22;52868;49.758;9.586;2023-01-01T04:23:46;13.20;74.70
66086;DHT22;52868;49.758;9.586;2023-01-01T04:26:13;13.20;74.70
66086;DHT22;52868;49.758;9.586;2023-01-01T04:28:40;13.20;74.70
66086;DHT22;52868;49.758;9.586;2023-01-01T04:31:06;13.20;74.70
66086;DHT22;52868;49.758;9.586;2023-01-01T04:33:32;13.20;74.70
66086;DHT22;52868;49.758;9.586;2023-01-01T04:36:03;13.20;74.80
66086;DHT22;52868;49.758;9.586;2023-01-01T04:38:31;13.20;74.70
66086;DHT22;52868;49.758;9.586;2023-01-01T04:40:58;13.20;74.70
66086;DHT22;52868;49.758;9.586;2023-01-01T04:43:24;13.20;74.70
66086;DHT22;52868;49.758;9.586;2023-01-01T04:45:58;13.20;74.70
66086;DHT22;52868;49.758;9.586;2023-01-01T04:48:25;13.20;74.70
66086;DHT22;52868;49.758;9.586;2023-01-01T04:51:10;13.20;74.70
66086;DHT22;52868;49.758;9.586;2023-01-01T04:53:36;13.20;74.60
66086;DHT22;52868;49.758;9.586;2023-01-01T04:56:18;13.10;74.60
66086;DHT22;52868;49.758;9.586;2023-01-01T04:58:45;13.20;74.60
66086;DHT22;52868;49.758;9.586;2023-01-01T05:01:19;13.20;74.60
66086;DHT22;52868;49.758;9.586;2023-01-01T05:03:46;13.20;74.60
66086;DHT22;52868;49.758;9.586;2023-01-01T05:06:12;13.20;74.70
66086;DHT22;52868;49.758;9.586;2023-01-01T05:08:40;13.10;74.70
66086;DHT22;52868;49.758;9.586;2023-01-01T05:11:11;13.10;74.50
66086;DHT22;52868;49.758;9.586;2023-01-01T05:13:39;13.10;74.70
66086;DHT22;52868;49.758;9.586;2023-01-01T05:16:09;13.20;74.70
66086;DHT22;52868;49.758;9.586;2023-01-01T05:18:35;13.20;74.60
66086;DHT22;52868;49.758;9.586;2023-01-01T05:21:02;13.10;74.50
66086;DHT22;52868;49.758;9.586;2023-01-01T05:23:29;13.10;74.60
66086;DHT22;52868;49.758;9.586;2023-01-01T05:25:55;13.10;74.50
66086;DHT22;52868;49.758;9.586;2023-01-01T05:28:20;13.10;74.60
66086;DHT22;52868;49.758;9.586;2023-01-01T05:30:51;13.10;74.60
66086;DHT22;52868;49.758;9.586;2023-01-01T05:33:17;13.10;74.60
66086;DHT22;52868;49.758;9.586;2023-01-01T05:35:45;13.20;74.50
66086;DHT22;52868;49.758;9.586;2023-01-01T05:38:16;13.10;74.60
66086;DHT22;52868;49.758;9.586;2023-01-01T05:40:42;13.10;74.30
66086;DHT22;52868;49.758;9.586;2023-01-01T05:43:07;13.10;74.40
66086;DHT22;52868;49.758;9.586;2023-01-01T05:45:33;13.10;74.50
66086;DHT22;52868;49.758;9.586;2023-01-01T05:47:59;13.10;74.60
66086;DHT22;52868;49.758;9.586;2023-01-01T05:50:24;13.00;74.60
66086;DHT22;52868;49.758;9.586;2023-01-01T05:52:50;13.10;74.70
66086;DHT22;52868;49.758;9.586;2023-01-01T05:55:16;13.00;74.70
66086;DHT22;52868;49.758;9.586;2023-01-01T05:57:41;13.00;74.80
66086;DHT22;52868;49.758;9.586;2023-01-01T06:00:07;13.00;74.90
66086;DHT22;52868;49.758;9.586;2023-01-01T06:02:33;13.00;74.80
66086;DHT22;52868;49.758;9.586;2023-01-01T06:04:59;13.00;74.80
66086;DHT22;52868;49.758;9.586;2023-01-01T06:07:24;13.00;74.80
66086;DHT22;52868;49.758;9.586;2023-01-01T06:09:50;13.00;74.80
66086;DHT22;52868;49.758;9.586;2023-01-01T06:12:15;13.00;74.90
66086;DHT22;52868;49.758;9.586;2023-01-01T06:14:41;13.00;74.90
66086;DHT22;52868;49.758;9.586;2023-01-01T06:17:06;13.00;74.90
66086;DHT22;52868;49.758;9.586;2023-01-01T06:19:32;12.90;74.90
66086;DHT22;52868;49.758;9.586;2023-01-01T06:21:58;13.00;75.00
66086;DHT22;52868;49.758;9.586;2023-01-01T06:24:23;12.90;75.00
66086;DHT22;52868;49.758;9.586;2023-01-01T06:26:49;12.90;75.00
66086;DHT22;52868;49.758;9.586;2023-01-01T06:29:14;12.90;75.00
66086;DHT22;52868;49.758;9.586;2023-01-01T06:31:40;12.90;75.00
66086;DHT22;52868;49.758;9.586;2023-01-01T06:34:05;13.00;75.00
66086;DHT22;52868;49.758;9.586;2023-01-01T06:36:31;12.90;75.00
66086;DHT22;52868;49.758;9.586;2023-01-01T06:38:57;12.90;75.00
66086;DHT22;52868;49.758;9.586;2023-01-01T06:41:27;12.90;74.80
66086;DHT22;52868;49.758;9.586;2023-01-01T06:43:55;12.90;75.00
66086;DHT22;52868;49.758;9.586;2023-01-01T06:46:24;12.90;75.00
66086;DHT22;52868;49.758;9.586;2023-01-01T06:48:52;12.90;75.10
66086;DHT22;52868;49.758;9.586;2023-01-01T06:51:20;12.90;75.20
66086;DHT22;52868;49.758;9.586;2023-01-01T06:53:47;12.90;75.00
66086;DHT22;52868;49.758;9.586;2023-01-01T06:56:13;12.90;75.10
66086;DHT22;52868;49.758;9.586;2023-01-01T06:58:39;12.80;75.10
66086;DHT22;52868;49.758;9.586;2023-01-01T07:01:15;12.90;75.10
66086;DHT22;52868;49.758;9.586;2023-01-01T07:03:41;12.80;75.20
66086;DHT22;52868;49.758;9.586;2023-01-01T07:06:09;12.80;75.20
66086;DHT22;52868;49.758;9.586;2023-01-01T07:08:35;12.80;75.20
66086;DHT22;52868;49.758;9.586;2023-01-01T07:11:01;12.80;75.20
66086;DHT22;52868;49.758;9.586;2023-01-01T07:13:28;12.80;75.10
66086;DHT22;52868;49.758;9.586;2023-01-01T07:15:54;12.80;75.10
66086;DHT22;52868;49.758;9.586;2023-01-01T07:18:21;12.80;75.00
66086;DHT22;52868;49.758;9.586;2023-01-01T07:20:51;12.80;75.00
66086;DHT22;52868;49.758;9.586;2023-01-01T07:23:18;12.80;75.00
66086;DHT22;52868;49.758;9.586;2023-01-01T07:25:43;12.80;74.90
66086;DHT22;52868;49.758;9.586;2023-01-01T07:28:09;12.80;75.00
66086;DHT22;52868;49.758;9.586;2023-01-01T07:30:35;12.80;75.00
66086;DHT22;52868;49.758;9.586;2023-01-01T07:33:03;12.80;75.00
66086;DHT22;52868;49.758;9.586;2023-01-01T07:35:32;12.80;75.00
66086;DHT22;52868;49.758;9.586;2023-01-01T07:37:57;12.70;75.00
66086;DHT22;52868;49.758;9.586;2023-01-01T07:40:23;12.80;75.10
66086;DHT22;52868;49.758;9.586;2023-01-01T07:42:49;12.70;75.00
66086;DHT22;52868;49.758;9.586;2023-01-01T07:45:14;12.80;74.90
66086;DHT22;52868;49.758;9.586;2023-01-01T07:47:40;12.70;75.10
66086;DHT22;52868;49.758;9.586;2023-01-01T07:50:06;12.70;75.10
66086;DHT22;52868;49.758;9.586;2023-01-01T07:52:31;12.80;75.00
66086;DHT22;52868;49.758;9.586;2023-01-01T07:54:57;12.70;75.00
66086;DHT22;52868;49.758;9.586;2023-01-01T07:57:23;12.70;75.20
66086;DHT22;52868;49.758;9.586;2023-01-01T07:59:48;12.70;75.20
66086;DHT22;52868;49.758;9.586;2023-01-01T08:02:14;12.70;75.10
66086;DHT22;52868;49.758;9.586;2023-01-01T08:04:39;12.70;75.30
66086;DHT22;52868;49.758;9.586;2023-01-01T08:07:05;12.70;75.10
66086;DHT22;52868;49.758;9.586;2023-01-01T08:09:30;12.70;75.20
66086;DHT22;52868;49.758;9.586;2023-01-01T08:11:56;12.70;75.30
66086;DHT22;52868;49.758;9.586;2023-01-01T08:14:23;12.70;75.20
66086;DHT22;52868;49.758;9.586;2023-01-01T08:16:50;12.70;75.20
66086;DHT22;52868;49.758;9.586;2023-01-01T08:19:16;12.70;75.20
66086;DHT22;52868;49.758;9.586;2023-01-01T08:21:41;12.70;75.10
66086;DHT22;52868;49.758;9.586;2023-01-01T08:24:07;12.70;75.20
66086;DHT22;52868;49.758;9.586;2023-01-01T08:26:35;12.80;75.30
66086;DHT22;52868;49.758;9.586;2023-01-01T08:29:03;12.80;75.30
66086;DHT22;52868;49.758;9.586;2023-01-01T08:31:28;12.70;75.30
66086;DHT22;52868;49.758;9.586;2023-01-01T08:33:54;12.70;75.30
66086;DHT22;52868;49.758;9.586;2023-01-01T08:36:20;12.70;75.30
66086;DHT22;52868;49.758;9.586;2023-01-01T08:38:46;12.70;75.20
66086;DHT22;52868;49.758;9.586;2023-01-01T08:41:12;12.80;75.40
66086;DHT22;52868;49.758;9.586;2023-01-01T08:43:37;12.70;75.40
66086;DHT22;52868;49.758;9.586;2023-01-01T08:46:03;12.70;75.20
66086;DHT22;52868;49.758;9.586;2023-01-01T08:48:29;12.70;75.20
66086;DHT22;52868;49.758;9.586;2023-01-01T08:50:59;12.70;75.30
66086;DHT22;52868;49.758;9.586;2023-01-01T08:53:29;12.70;75.20
66086;DHT22;52868;49.758;9.586;2023-01-01T08:56:13;12.80;75.20
66086;DHT22;52868;49.758;9.586;2023-01-01T08:58:40;12.80;75.10
66086;DHT22;52868;49.758;9.586;2023-01-01T09:01:07;12.80;74.90
66086;DHT22;52868;49.758;9.586;2023-01-01T09:03:33;12.80;74.90
66086;DHT22;52868;49.758;9.586;2023-01-01T09:05:59;12.80;74.90
66086;DHT22;52868;49.758;9.586;2023-01-01T09:08:25;12.80;74.80
66086;DHT22;52868;49.758;9.586;2023-01-01T09:10:52;12.80;74.60
66086;DHT22;52868;49.758;9.586;2023-01-01T09:13:19;12.80;74.60
66086;DHT22;52868;49.758;9.586;2023-01-01T09:15:46;12.80;74.50
66086;DHT22;52868;49.758;9.586;2023-01-01T09:18:12;12.80;74.50
66086;DHT22;52868;49.758;9.586;2023-01-01T09:20:38;12.80;74.60
66086;DHT22;52868;49.758;9.586;2023-01-01T09:23:04;12.90;74.40
66086;DHT22;52868;49.758;9.586;2023-01-01T09:25:31;12.80;74.30
66086;DHT22;52868;49.758;9.586;2023-01-01T09:28:05;12.90;74.40
66086;DHT22;52868;49.758;9.586;2023-01-01T09:30:31;13.00;74.30
66086;DHT22;52868;49.758;9.586;2023-01-01T09:32:57;12.90;74.40
66086;DHT22;52868;49.758;9.586;2023-01-01T09:35:23;13.00;74.30
66086;DHT22;52868;49.758;9.586;2023-01-01T09:37:48;13.00;74.30
66086;DHT22;52868;49.758;9.586;2023-01-01T09:40:25;13.00;74.40
66086;DHT22;52868;49.758;9.586;2023-01-01T09:43:04;13.00;74.30
66086;DHT22;52868;49.758;9.586;2023-01-01T09:45:39;13.00;74.30
66086;DHT22;52868;49.758;9.586;2023-01-01T09:48:11;13.00;74.30
66086;DHT22;52868;49.758;9.586;2023-01-01T09:50:43;13.00;74.20
66086;DHT22;52868;49.758;9.586;2023-01-01T09:58:14;13.10;74.10
66086;DHT22;52868;49.758;9.586;2023-01-01T10:00:42;13.10;74.00
66086;DHT22;52868;49.758;9.586;2023-01-01T10:03:29;13.10;73.90
66086;DHT22;52868;49.758;9.586;2023-01-01T10:08:57;13.20;73.80
66086;DHT22;52868;49.758;9.586;2023-01-01T10:11:40;13.20;73.80
66086;DHT22;52868;49.758;9.586;2023-01-01T10:14:31;13.20;73.70
66086;DHT22;52868;49.758;9.586;2023-01-01T10:17:00;13.30;73.60
66086;DHT22;52868;49.758;9.586;2023-01-01T10:19:34;13.30;73.50
66086;DHT22;52868;49.758;9.586;2023-01-01T10:22:10;13.30;73.30
66086;DHT22;52868;49.758;9.586;2023-01-01T10:27:44;13.40;73.30
66086;DHT22;52868;49.758;9.586;2023-01-01T10:30:17;13.40;73.20
66086;DHT22;52868;49.758;9.586;2023-01-01T10:32:46;13.40;73.10
66086;DHT22;52868;49.758;9.586;2023-01-01T10:35:16;13.40;72.90
66086;DHT22;52868;49.758;9.586;2023-01-01T10:37:48;13.50;72.80
66086;DHT22;52868;49.758;9.586;2023-01-01T10:40:22;13.50;72.60
66086;DHT22;52868;49.758;9.586;2023-01-01T10:42:54;13.50;72.50
66086;DHT22;52868;49.758;9.586;2023-01-01T10:45:29;13.50;72.40
66086;DHT22;52868;49.758;9.586;2023-01-01T10:48:16;13.60;72.50
66086;DHT22;52868;49.758;9.586;2023-01-01T10:50:47;13.50;72.30
66086;DHT22;52868;49.758;9.586;2023-01-01T10:53:42;13.60;72.30
66086;DHT22;52868;49.758;9.586;2023-01-01T10:56:12;13.60;72.00
66086;DHT22;52868;49.758;9.586;2023-01-01T10:58:46;13.60;72.20
66086;DHT22;52868;49.758;9.586;2023-01-01T11:04:18;13.70;72.20
66086;DHT22;52868;49.758;9.586;2023-01-01T11:06:45;13.70;72.20
66086;DHT22;52868;49.758;9.586;2023-01-01T11:09:28;13.70;71.90
66086;DHT22;52868;49.758;9.586;2023-01-01T11:11:59;13.70;71.80
66086;DHT22;52868;49.758;9.586;2023-01-01T11:14:37;13.70;71.80
66086;DHT22;52868;49.758;9.586;2023-01-01T11:17:05;13.80;71.80
66086;DHT22;52868;49.758;9.586;2023-01-01T11:19:38;13.80;71.80
66086;DHT22;52868;49.758;9.586;2023-01-01T11:22:05;13.80;71.80
66086;DHT22;52868;49.758;9.586;2023-01-01T11:24:33;13.80;71.80
66086;DHT22;52868;49.758;9.586;2023-01-01T11:27:20;13.80;71.70
66086;DHT22;52868;49.758;9.586;2023-01-01T11:29:47;13.80;71.60
66086;DHT22;52868;49.758;9.586;2023-01-01T11:32:18;13.80;71.60
66086;DHT22;52868;49.758;9.586;2023-01-01T11:34:45;13.80;71.70
66086;DHT22;52868;49.758;9.586;2023-01-01T11:37:30;13.80;71.70
66086;DHT22;52868;49.758;9.586;2023-01-01T11:40:02;13.80;71.60
66086;DHT22;52868;49.758;9.586;2023-01-01T11:42:33;13.90;71.60
66086;DHT22;52868;49.758;9.586;2023-01-01T11:45:05;13.90;71.40
66086;DHT22;52868;49.758;9.586;2023-01-01T11:47:41;13.90;71.30
66086;DHT22;52868;49.758;9.586;2023-01-01T11:52:40;14.00;71.40
66086;DHT22;52868;49.758;9.586;2023-01-01T11:58:08;14.00;71.20
66086;DHT22;52868;49.758;9.586;2023-01-01T12:00:36;14.00;71.30
66086;DHT22;52868;49.758;9.586;2023-01-01T12:06:29;14.00;71.20
66086;DHT22;52868;49.758;9.586;2023-01-01T12:08:37;14.00;71.10
66086;DHT22;52868;49.758;9.586;2023-01-01T12:11:06;14.00;71.00
66086;DHT22;52868;49.758;9.586;2023-01-01T12:13:43;14.00;71.00
66086;DHT22;52868;49.758;9.586;2023-01-01T12:16:47;14.00;71.00
66086;DHT22;52868;49.758;9.586;2023-01-01T12:19:20;14.00;71.10
66086;DHT22;52868;49.758;9.586;2023-01-01T12:21:53;14.10;71.10
66086;DHT22;52868;49.758;9.586;2023-01-01T12:24:33;14.00;71.00
66086;DHT22;52868;49.758;9.586;2023-01-01T12:30:26;14.10;70.80
66086;DHT22;52868;49.758;9.586;2023-01-01T12:44:36;14.00;70.80
66086;DHT22;52868;49.758;9.586;2023-01-01T12:47:29;14.00;70.90
66086;DHT22;52868;49.758;9.586;2023-01-01T12:52:43;14.00;71.00
66086;DHT22;52868;49.758;9.586;2023-01-01T12:55:35;14.10;71.10
66086;DHT22;52868;49.758;9.586;2023-01-01T12:58:11;14.10;71.10
66086;DHT22;52868;49.758;9.586;2023-01-01T13:00:42;14.10;70.90
66086;DHT22;52868;49.758;9.586;2023-01-01T13:03:25;14.00;71.00
66086;DHT22;52868;49.758;9.586;2023-01-01T13:05:54;14.10;70.80
66086;DHT22;52868;49.758;9.586;2023-01-01T13:08:20;14.10;70.90
66086;DHT22;52868;49.758;9.586;2023-01-01T13:10:51;14.10;70.80
66086;DHT22;52868;49.758;9.586;2023-01-01T13:13:20;14.00;70.80
66086;DHT22;52868;49.758;9.586;2023-01-01T13:15:49;14.10;70.90
66086;DHT22;52868;49.758;9.586;2023-01-01T13:18:17;14.10;70.70
66086;DHT22;52868;49.758;9.586;2023-01-01T13:20:58;14.10;70.80
66086;DHT22;52868;49.758;9.586;2023-01-01T13:42:39;14.00;70.90
66086;DHT22;52868;49.758;9.586;2023-01-01T13:45:37;14.00;70.90
66086;DHT22;52868;49.758;9.586;2023-01-01T13:57:02;14.00;70.90
66086;DHT22;52868;49.758;9.586;2023-01-01T14:02:34;14.00;70.90
66086;DHT22;52868;49.758;9.586;2023-01-01T14:05:12;14.00;70.80
66086;DHT22;52868;49.758;9.586;2023-01-01T14:07:52;14.00;70.90
66086;DHT22;52868;49.758;9.586;2023-01-01T14:10:24;14.00;70.90
66086;DHT22;52868;49.758;9.586;2023-01-01T14:12:53;14.00;70.90
66086;DHT22;52868;49.758;9.586;2023-01-01T14:15:28;14.00;70.90
66086;DHT22;52868;49.758;9.586;2023-01-01T14:17:56;14.00;70.90
66086;DHT22;52868;49.758;9.586;2023-01-01T14:20:48;14.00;70.90
66086;DHT22;52868;49.758;9.586;2023-01-01T14:23:23;14.00;70.80
66086;DHT22;52868;49.758;9.586;2023-01-01T14:25:51;14.00;70.80
66086;DHT22;52868;49.758;9.586;2023-01-01T14:28:29;14.10;70.90
66086;DHT22;52868;49.758;9.586;2023-01-01T14:30:56;14.00;71.00
66086;DHT22;52868;49.758;9.586;2023-01-01T14:33:26;14.00;71.00
66086;DHT22;52868;49.758;9.586;2023-01-01T14:35:57;14.00;71.00
66086;DHT22;52868;49.758;9.586;2023-01-01T14:38:31;14.00;71.00
66086;DHT22;52868;49.758;9.586;2023-01-01T14:43:29;14.00;71.00
66086;DHT22;52868;49.758;9.586;2023-01-01T14:45:54;14.00;71.00
66086;DHT22;52868;49.758;9.586;2023-01-01T14:48:20;14.00;70.80
66086;DHT22;52868;49.758;9.586;2023-01-01T14:50:49;14.00;70.90
66086;DHT22;52868;49.758;9.586;2023-01-01T14:53:17;14.00;70.90
66086;DHT22;52868;49.758;9.586;2023-01-01T14:55:50;14.00;71.00
66086;DHT22;52868;49.758;9.586;2023-01-01T14:58:24;13.90;71.10
66086;DHT22;52868;49.758;9.586;2023-01-01T15:00:51;13.90;71.00
66086;DHT22;52868;49.758;9.586;2023-01-01T15:03:21;14.00;71.00
66086;DHT22;52868;49.758;9.586;2023-01-01T15:05:58;14.00;71.10
66086;DHT22;52868;49.758;9.586;2023-01-01T15:08:25;13.90;71.10
66086;DHT22;52868;49.758;9.586;2023-01-01T15:10:52;13.90;71.10
66086;DHT22;52868;49.758;9.586;2023-01-01T15:13:22;13.90;71.20
66086;DHT22;52868;49.758;9.586;2023-01-01T15:15:51;13.90;71.30
66086;DHT22;52868;49.758;9.586;2023-01-01T15:24:16;13.90;71.70
66086;DHT22;52868;49.758;9.586;2023-01-01T15:26:53;13.90;71.90
66086;DHT22;52868;49.758;9.586;2023-01-01T15:29:27;13.90;72.10
66086;DHT22;52868;49.758;9.586;2023-01-01T15:31:57;13.90;72.10
66086;DHT22;52868;49.758;9.586;2023-01-01T15:34:26;13.80;72.10
66086;DHT22;52868;49.758;9.586;2023-01-01T15:36:54;13.80;72.20
66086;DHT22;52868;49.758;9.586;2023-01-01T15:39:21;13.80;72.30
66086;DHT22;52868;49.758;9.586;2023-01-01T15:41:49;13.80;72.30
66086;DHT22;52868;49.758;9.586;2023-01-01T15:44:19;13.90;72.40
66086;DHT22;52868;49.758;9.586;2023-01-01T15:46:47;13.80;72.40
66086;DHT22;52868;49.758;9.586;2023-01-01T15:49:22;13.80;72.50
66086;DHT22;52868;49.758;9.586;2023-01-01T15:51:48;13.80;72.50
66086;DHT22;52868;49.758;9.586;2023-01-01T15:54:15;13.80;72.60
66086;DHT22;52868;49.758;9.586;2023-01-01T15:56:42;13.80;72.60
66086;DHT22;52868;49.758;9.586;2023-01-01T15:59:33;13.80;72.60
66086;DHT22;52868;49.758;9.586;2023-01-01T16:02:15;13.70;72.60
66086;DHT22;52868;49.758;9.586;2023-01-01T16:04:46;13.80;72.60
66086;DHT22;52868;49.758;9.586;2023-01-01T16:07:21;13.80;72.70
66086;DHT22;52868;49.758;9.586;2023-01-01T16:09:48;13.70;72.70
66086;DHT22;52868;49.758;9.586;2023-01-01T16:12:14;13.80;72.70
66086;DHT22;52868;49.758;9.586;2023-01-01T16:14:40;13.70;72.80
66086;DHT22;52868;49.758;9.586;2023-01-01T16:17:08;13.70;72.80
66086;DHT22;52868;49.758;9.586;2023-01-01T16:19:34;13.70;72.90
66086;DHT22;52868;49.758;9.586;2023-01-01T16:22:00;13.70;72.80
66086;DHT22;52868;49.758;9.586;2023-01-01T16:24:26;13.70;72.90
66086;DHT22;52868;49.758;9.586;2023-01-01T16:26:52;13.70;72.90
66086;DHT22;52868;49.758;9.586;2023-01-01T16:29:18;13.70;72.90
66086;DHT22;52868;49.758;9.586;2023-01-01T16:31:45;13.70;72.90
66086;DHT22;52868;49.758;9.586;2023-01-01T16:34:15;13.70;73.00
66086;DHT22;52868;49.758;9.586;2023-01-01T16:36:41;13.70;73.00
66086;DHT22;52868;49.758;9.586;2023-01-01T16:39:07;13.60;73.00
66086;DHT22;52868;49.758;9.586;2023-01-01T16:41:32;13.60;73.00
66086;DHT22;52868;49.758;9.586;2023-01-01T16:43:58;13.60;73.10
66086;DHT22;52868;49.758;9.586;2023-01-01T16:46:27;13.60;73.10
66086;DHT22;52868;49.758;9.586;2023-01-01T16:48:53;13.60;73.20
66086;DHT22;52868;49.758;9.586;2023-01-01T16:51:24;13.60;73.20
66086;DHT22;52868;49.758;9.586;2023-01-01T16:53:51;13.50;73.20
66086;DHT22;52868;49.758;9.586;2023-01-01T16:56:17;13.50;73.10
66086;DHT22;52868;49.758;9.586;2023-01-01T16:58:42;13.50;73.20
66086;DHT22;52868;49.758;9.586;2023-01-01T17:01:08;13.50;73.20
66086;DHT22;52868;49.758;9.586;2023-01-01T17:03:34;13.50;73.10
66086;DHT22;52868;49.758;9.586;2023-01-01T17:06:04;13.50;73.20
66086;DHT22;52868;49.758;9.586;2023-01-01T17:08:30;13.50;73.20
66086;DHT22;52868;49.758;9.586;2023-01-01T17:11:06;13.50;73.30
66086;DHT22;52868;49.758;9.586;2023-01-01T17:13:33;13.40;73.20
66086;DHT22;52868;49.758;9.586;2023-01-01T17:15:59;13.50;73.30
66086;DHT22;52868;49.758;9.586;2023-01-01T17:18:30;13.40;73.30
66086;DHT22;52868;49.758;9.586;2023-01-01T17:21:03;13.40;73.30
66086;DHT22;52868;49.758;9.586;2023-01-01T17:23:41;13.40;73.40
66086;DHT22;52868;49.758;9.586;2023-01-01T17:28:38;13.40;73.30
66086;DHT22;52868;49.758;9.586;2023-01-01T17:31:15;13.40;73.40
66086;DHT22;52868;49.758;9.586;2023-01-01T17:33:41;13.40;73.40
66086;DHT22;52868;49.758;9.586;2023-01-01T17:36:09;13.40;73.50
66086;DHT22;52868;49.758;9.586;2023-01-01T17:38:35;13.40;73.60
66086;DHT22;52868;49.758;9.586;2023-01-01T17:41:14;13.30;73.50
66086;DHT22;52868;49.758;9.586;2023-01-01T17:43:42;13.30;73.50
66086;DHT22;52868;49.758;9.586;2023-01-01T17:48:42;13.30;73.50
66086;DHT22;52868;49.758;9.586;2023-01-01T17:51:09;13.30;73.40
66086;DHT22;52868;49.758;9.586;2023-01-01T17:53:35;13.20;73.50